Time;durP1;ratioP1;P1;durP2;ratioP2;P2;SDS_P1;SDS_P2;PMS_P1;PMS_P2;Temp;Humidity;BMP_temperature;BMP_pressure;BME280_temperature;BME280_humidity;BME280_pressure;Samples;Min_cycle;Max_cycle;Signal;HPM_P1;HPM_P2
2023/02/26 00:01:25;;;;;;;3.75;1.20;;;;;;;-0.96;98.94;95258.88;4989602;28;24433;-77
2023/02/26 00:03:54;;;;;;;3.38;1.10;;;;;;;-1.12;99.66;95255.06;4989895;28;24468;-77
2023/02/26 00:06:21;;;;;;;4.25;2.80;;;;;;;-1.40;100.00;95265.09;4982895;28;24448;-77
2023/02/26 00:08:48;;;;;;;3.20;2.35;;;;;;;-1.35;100.00;95253.94;4989836;28;24982;-77
2023/02/26 00:11:15;;;;;;;3.05;1.30;;;;;;;-1.12;100.00;95266.06;4989576;28;24448;-77
2023/02/26 00:13:44;;;;;;;3.15;1.20;;;;;;;-0.72;98.40;95265.00;4989612;28;24448;-78
2023/02/26 00:16:23;;;;;;;2.90;1.08;;;;;;;-0.87;99.17;95268.78;4993038;28;24819;-78
2023/02/26 00:18:51;;;;;;;3.28;1.45;;;;;;;-1.39;100.00;95266.75;4993850;28;24437;-78
2023/02/26 00:21:20;;;;;;;5.13;1.30;;;;;;;-1.12;99.46;95267.75;4992605;28;24492;-77
2023/02/26 00:23:47;;;;;;;3.35;1.10;;;;;;;-0.93;98.68;95268.94;4991435;28;24441;-77
2023/02/26 00:26:13;;;;;;;1.55;0.93;;;;;;;-0.97;98.58;95265.66;4990625;28;24440;-77
2023/02/26 00:28:40;;;;;;;2.88;1.33;;;;;;;-1.14;99.86;95261.91;4993467;28;24443;-78
2023/02/26 00:31:08;;;;;;;2.42;1.20;;;;;;;-1.35;100.00;95270.88;4993290;28;24433;-77
2023/02/26 00:33:35;;;;;;;2.60;1.38;;;;;;;-1.28;100.00;95267.31;4997136;28;24445;-78
2023/02/26 00:36:12;;;;;;;1.98;1.00;;;;;;;-1.16;100.00;95267.00;4996634;28;24436;-78
2023/02/26 00:38:46;;;;;;;7.47;1.50;;;;;;;-1.27;100.00;95269.81;4988575;28;24448;-76
2023/02/26 00:41:14;;;;;;;4.83;1.27;;;;;;;-1.38;100.00;95263.31;4983910;28;24520;-77
2023/02/26 00:43:41;;;;;;;4.72;1.25;;;;;;;-1.38;100.00;95268.41;4989056;28;24850;-77
2023/02/26 00:46:21;;;;;;;4.87;1.10;;;;;;;-1.54;100.00;95267.94;4988602;28;24506;-77
2023/02/26 00:48:55;;;;;;;2.58;1.20;;;;;;;-1.39;100.00;95272.66;4983545;28;24445;-78
2023/02/26 00:51:30;;;;;;;2.00;1.00;;;;;;;-1.55;100.00;95264.59;4984486;28;25000;-78
2023/02/26 00:54:05;;;;;;;3.80;1.15;;;;;;;-1.45;100.00;95262.63;4988599;28;24448;-77
2023/02/26 00:56:31;;;;;;;4.30;1.40;;;;;;;-1.34;100.00;95270.00;4994215;28;24446;-78
2023/02/26 00:58:58;;;;;;;4.20;1.20;;;;;;;-1.44;100.00;95263.50;4993205;28;24444;-78
2023/02/26 01:01:24;;;;;;;2.20;1.20;;;;;;;-1.62;100.00;95264.75;4994453;28;25093;-78
2023/02/26 01:03:51;;;;;;;3.45;1.42;;;;;;;-1.48;100.00;95263.56;4989220;28;24480;-78
2023/02/26 01:06:21;;;;;;;4.50;1.48;;;;;;;-1.46;100.00;95266.06;4991769;28;24457;-78
2023/02/26 01:08:54;;;;;;;4.70;1.20;;;;;;;-1.34;100.00;95265.75;4992376;28;24440;-78
2023/02/26 01:11:22;;;;;;;3.08;1.20;;;;;;;-1.41;100.00;95265.94;4993213;28;25327;-77
2023/02/26 01:13:50;;;;;;;3.05;1.48;;;;;;;-1.52;100.00;95261.97;4987807;28;24449;-77
2023/02/26 01:16:22;;;;;;;1.77;0.98;;;;;;;-1.34;100.00;95265.75;4993883;28;24472;-78
2023/02/26 01:18:52;;;;;;;2.42;1.10;;;;;;;-1.51;100.00;95262.81;4988022;28;24441;-77
2023/02/26 01:21:27;;;;;;;2.17;1.17;;;;;;;-1.42;100.00;95259.19;4992786;28;24456;-78
2023/02/26 01:23:54;;;;;;;3.15;1.10;;;;;;;-1.33;100.00;95261.53;4988205;28;24769;-78
2023/02/26 01:26:25;;;;;;;2.35;1.13;;;;;;;-1.43;100.00;95263.44;4986377;28;24456;-77
2023/02/26 01:28:53;;;;;;;2.58;1.15;;;;;;;-1.59;100.00;95262.16;4993046;28;24474;-77
2023/02/26 01:31:33;;;;;;;3.93;1.40;;;;;;;-1.65;100.00;95257.22;4990751;28;24492;-77
2023/02/26 01:34:06;;;;;;;3.05;1.17;;;;;;;-2.26;100.00;95256.88;4990910;28;24444;-78
2023/02/26 01:36:40;;;;;;;6.82;1.10;;;;;;;-2.06;100.00;95275.03;4987974;28;24796;-78
2023/02/26 01:39:16;;;;;;;4.40;1.35;;;;;;;-1.97;100.00;95257.06;4994216;28;24963;-77
2023/02/26 01:41:47;;;;;;;2.38;1.30;;;;;;;-1.88;100.00;95252.66;4991160;28;24436;-78
2023/02/26 01:44:23;;;;;;;2.67;1.23;;;;;;;-1.74;100.00;95266.72;4992944;28;24433;-77
2023/02/26 01:47:11;;;;;;;1.70;1.10;;;;;;;-1.67;100.00;95264.00;4990643;28;24421;-77
2023/02/26 01:49:38;;;;;;;3.05;1.40;;;;;;;-1.75;100.00;95272.63;4983398;28;24444;-77
2023/02/26 01:52:25;;;;;;;1.92;1.10;;;;;;;-1.81;100.00;95271.97;4986944;28;24440;-77
2023/02/26 01:54:52;;;;;;;2.42;1.25;;;;;;;-1.96;100.00;95280.75;4989015;28;24429;-77
2023/02/26 01:57:21;;;;;;;1.90;1.00;;;;;;;-1.84;100.00;95267.78;4991347;28;25053;-77
2023/02/26 01:59:51;;;;;;;3.83;1.17;;;;;;;-2.02;100.00;95263.94;4992485;28;24492;-77
2023/02/26 02:02:20;;;;;;;2.33;1.40;;;;;;;-1.79;100.00;95265.97;4991326;28;24444;-77
2023/02/26 02:04:48;;;;;;;2.60;1.10;;;;;;;-1.76;100.00;95268.44;4992241;28;24456;-77
2023/02/26 02:07:15;;;;;;;2.40;1.00;;;;;;;-1.99;100.00;95266.44;4990579;28;24489;-77
2023/02/26 02:09:42;;;;;;;2.10;1.00;;;;;;;-2.01;100.00;95265.63;4988205;28;24987;-77
2023/02/26 02:12:20;;;;;;;7.75;1.20;;;;;;;-1.96;100.00;95268.91;4989842;28;24898;-77
2023/02/26 02:15:02;;;;;;;2.63;1.08;;;;;;;-1.76;100.00;95265.91;4978023;28;24440;-77
2023/02/26 02:17:37;;;;;;;3.22;1.23;;;;;;;-1.96;100.00;95266.38;4988009;28;24449;-78
2023/02/26 02:20:33;;;;;;;2.33;1.10;;;;;;;-1.99;100.00;95268.97;4991907;28;24429;-77
2023/02/26 02:23:17;;;;;;;2.80;1.30;;;;;;;-1.98;100.00;95267.25;4992282;28;24813;-78
2023/02/26 02:26:16;;;;;;;3.63;1.40;;;;;;;-1.83;100.00;95273.69;4986833;28;24456;-77
2023/02/26 02:29:02;;;;;;;2.85;1.10;;;;;;;-1.77;100.00;95273.56;4990010;28;24978;-77
2023/02/26 02:31:33;;;;;;;2.72;1.27;;;;;;;-1.73;100.00;95277.69;4991045;28;24433;-77
2023/02/26 02:34:04;;;;;;;2.45;1.27;;;;;;;-1.94;100.00;95279.00;4990343;28;24433;-78
2023/02/26 02:36:35;;;;;;;3.55;1.35;;;;;;;-2.13;100.00;95287.91;4983863;28;24796;-77
2023/02/26 02:39:06;;;;;;;2.13;1.02;;;;;;;-2.07;100.00;95283.53;4992001;28;25013;-77
2023/02/26 02:41:37;;;;;;;4.13;1.27;;;;;;;-2.09;100.00;95287.78;4990347;28;24444;-78
2023/02/26 02:44:10;;;;;;;2.43;1.10;;;;;;;-2.02;100.00;95284.25;4992033;28;24985;-78
2023/02/26 02:46:40;;;;;;;1.73;1.10;;;;;;;-1.85;100.00;95298.28;4989894;28;24460;-77
2023/02/26 02:49:12;;;;;;;2.15;1.10;;;;;;;-1.99;100.00;95299.41;4986915;28;24441;-77
2023/02/26 02:51:44;;;;;;;2.08;1.20;;;;;;;-2.11;100.00;95298.81;4991072;28;24432;-78
2023/02/26 02:54:16;;;;;;;3.75;1.23;;;;;;;-1.96;100.00;95293.44;4987857;28;24448;-77
2023/02/26 02:56:55;;;;;;;2.13;1.10;;;;;;;-2.23;100.00;95292.31;4984544;28;24437;-77
2023/02/26 02:59:25;;;;;;;2.25;0.80;;;;;;;-2.16;100.00;95303.16;4984275;28;25001;-78
2023/02/26 03:02:00;;;;;;;3.33;1.37;;;;;;;-2.16;100.00;95298.09;4989592;28;24533;-77
2023/02/26 03:04:27;;;;;;;3.88;1.45;;;;;;;-2.08;100.00;95296.22;4985682;28;24792;-78
2023/02/26 03:06:54;;;;;;;3.90;1.80;;;;;;;-2.06;100.00;95299.59;4983728;28;24440;-77
2023/02/26 03:09:20;;;;;;;2.13;1.13;;;;;;;-2.07;100.00;95303.81;4991950;28;24477;-78
2023/02/26 03:11:47;;;;;;;3.47;1.42;;;;;;;-2.06;100.00;95307.19;4986066;28;24438;-78
2023/02/26 03:14:15;;;;;;;3.15;1.13;;;;;;;-2.11;100.00;95304.75;4986990;28;24440;-77
2023/02/26 03:16:56;;;;;;;2.70;1.33;;;;;;;-2.11;100.00;95306.44;4988630;28;24437;-77
2023/02/26 03:19:31;;;;;;;4.77;1.23;;;;;;;-1.94;100.00;95309.47;4986744;28;24468;-77
2023/02/26 03:22:04;;;;;;;2.03;1.17;;;;;;;-2.09;100.00;95314.88;4986653;28;24500;-77
2023/02/26 03:24:37;;;;;;;4.85;1.35;;;;;;;-2.16;100.00;95309.06;4991312;28;24803;-77
2023/02/26 03:27:11;;;;;;;2.13;0.93;;;;;;;-2.29;100.00;95312.75;4990884;28;24437;-77
2023/02/26 03:29:43;;;;;;;2.45;1.30;;;;;;;-2.23;100.00;95313.44;4990798;28;24440;-77
2023/02/26 03:32:14;;;;;;;2.22;1.10;;;;;;;-2.36;100.00;95317.09;4983122;28;24440;-77
2023/02/26 03:34:47;;;;;;;2.92;1.08;;;;;;;-2.55;100.00;95313.25;4991311;28;24994;-78
2023/02/26 03:37:19;;;;;;;2.22;1.00;;;;;;;-2.51;100.00;95315.69;4983692;28;24955;-78
2023/02/26 03:39:48;;;;;;;3.67;1.50;;;;;;;-2.41;100.00;95320.59;4991021;28;24425;-77
2023/02/26 03:42:21;;;;;;;3.17;0.82;;;;;;;-2.35;100.00;95317.94;4988533;28;24991;-77
2023/02/26 03:44:52;;;;;;;3.75;1.20;;;;;;;-2.40;100.00;95323.09;4990869;28;24436;-77
2023/02/26 03:47:20;;;;;;;4.55;1.10;;;;;;;-2.40;100.00;95325.63;4982700;28;24483;-77
2023/02/26 03:49:53;;;;;;;3.75;1.27;;;;;;;-2.28;100.00;95317.78;4981024;28;24438;-77
2023/02/26 03:52:22;;;;;;;1.90;1.10;;;;;;;-2.15;100.00;95331.06;4990163;28;24433;-77
2023/02/26 03:54:57;;;;;;;2.38;0.90;;;;;;;-2.34;100.00;95328.03;4987484;28;24437;-77
2023/02/26 03:57:24;;;;;;;4.90;1.20;;;;;;;-2.54;100.00;95330.97;4990322;28;24798;-77
2023/02/26 03:59:50;;;;;;;4.68;1.17;;;;;;;-2.60;100.00;95332.78;4979863;28;24437;-77
2023/02/26 04:02:22;;;;;;;2.38;1.10;;;;;;;-2.65;100.00;95332.03;4990173;28;24444;-77
2023/02/26 04:04:53;;;;;;;2.80;1.02;;;;;;;-2.46;100.00;95331.66;4990240;28;24804;-78
2023/02/26 04:07:21;;;;;;;6.57;1.50;;;;;;;-2.59;100.00;95334.47;4989965;28;24429;-77
2023/02/26 04:09:50;;;;;;;3.15;1.30;;;;;;;-2.70;100.00;95339.75;4986612;28;24439;-77
2023/02/26 04:12:21;;;;;;;2.42;1.00;;;;;;;-2.71;100.00;95340.56;4989274;28;24441;-77
2023/02/26 04:14:48;;;;;;;2.33;1.05;;;;;;;-2.65;100.00;95343.00;4990552;28;24441;-77
2023/02/26 04:17:14;;;;;;;3.78;1.40;;;;;;;-2.65;100.00;95337.94;4989589;28;24436;-78
2023/02/26 04:19:41;;;;;;;3.60;1.17;;;;;;;-2.68;100.00;95343.06;4982893;28;24811;-77
2023/02/26 04:22:09;;;;;;;2.22;1.02;;;;;;;-2.75;100.00;95344.88;4985502;28;24464;-78
2023/02/26 04:24:35;;;;;;;2.28;1.17;;;;;;;-2.88;100.00;95342.59;4991384;28;24445;-78
2023/02/26 04:27:02;;;;;;;1.90;1.20;;;;;;;-2.88;100.00;95340.06;4991102;28;24819;-77
2023/02/26 04:29:28;;;;;;;2.87;1.30;;;;;;;-2.96;100.00;95341.03;4986135;28;24523;-78
2023/02/26 04:31:55;;;;;;;2.88;1.20;;;;;;;-2.88;100.00;95352.72;4995292;28;24440;-77
2023/02/26 04:34:21;;;;;;;4.07;1.40;;;;;;;-2.93;100.00;95351.13;4995171;28;24447;-78
2023/02/26 04:36:48;;;;;;;2.65;1.45;;;;;;;-2.97;100.00;95349.47;4995073;28;25003;-78
2023/02/26 04:39:16;;;;;;;2.83;1.23;;;;;;;-3.08;100.00;95356.41;4989261;28;24444;-78
2023/02/26 04:41:42;;;;;;;2.00;1.20;;;;;;;-3.10;100.00;95360.69;4992812;28;24438;-78
2023/02/26 04:44:09;;;;;;;4.90;1.30;;;;;;;-3.08;100.00;95356.41;4991235;28;24441;-78
2023/02/26 04:46:35;;;;;;;3.60;1.40;;;;;;;-3.17;100.00;95354.03;4990206;28;24913;-78
2023/02/26 04:49:02;;;;;;;3.03;1.40;;;;;;;-3.16;100.00;95355.72;4990868;28;24437;-76
2023/02/26 04:51:28;;;;;;;6.30;1.63;;;;;;;-3.10;100.00;95364.91;4993214;28;24552;-78
2023/02/26 04:53:55;;;;;;;3.63;1.40;;;;;;;-3.03;100.00;95366.50;4990772;28;24437;-77
2023/02/26 04:56:23;;;;;;;5.20;1.70;;;;;;;-3.15;100.00;95367.53;4994360;28;24452;-78
2023/02/26 04:58:49;;;;;;;2.47;1.20;;;;;;;-3.03;100.00;95361.44;4991189;28;24444;-78
2023/02/26 05:01:15;;;;;;;3.67;1.73;;;;;;;-3.14;100.00;95364.13;4989075;28;24429;-78
2023/02/26 05:03:42;;;;;;;6.03;1.55;;;;;;;-3.03;100.00;95367.31;4995433;28;24832;-78
2023/02/26 05:06:08;;;;;;;2.95;1.48;;;;;;;-3.13;100.00;95363.25;4994463;28;24452;-78
2023/02/26 05:08:35;;;;;;;4.28;1.35;;;;;;;-3.29;100.00;95357.63;4994751;28;24444;-78
2023/02/26 05:11:01;;;;;;;3.13;1.45;;;;;;;-3.31;100.00;95363.56;4994457;28;24452;-78
2023/02/26 05:13:29;;;;;;;2.93;1.17;;;;;;;-3.26;100.00;95367.69;4994040;28;24441;-78
2023/02/26 05:15:56;;;;;;;3.30;1.45;;;;;;;-3.30;100.00;95367.75;4993254;28;24987;-78
2023/02/26 05:18:23;;;;;;;4.38;1.40;;;;;;;-3.44;100.00;95371.34;4992576;28;24990;-77
2023/02/26 05:20:52;;;;;;;4.45;1.42;;;;;;;-3.45;100.00;95378.94;4989081;28;24437;-78
2023/02/26 05:23:19;;;;;;;4.13;1.48;;;;;;;-3.34;100.00;95378.78;4988323;28;24820;-77
2023/02/26 05:25:45;;;;;;;2.42;1.52;;;;;;;-3.57;100.00;95374.91;4993491;28;24819;-78
2023/02/26 05:28:12;;;;;;;3.75;1.48;;;;;;;-3.50;100.00;95378.19;4993138;28;24449;-77
2023/02/26 05:30:40;;;;;;;3.00;1.38;;;;;;;-3.40;100.00;95382.25;4988196;28;24975;-77
2023/02/26 05:33:07;;;;;;;4.55;1.60;;;;;;;-3.28;100.00;95381.25;4993903;28;24995;-77
2023/02/26 05:35:33;;;;;;;3.67;1.63;;;;;;;-3.17;100.00;95390.34;4990502;28;24445;-78
2023/02/26 05:38:00;;;;;;;4.43;1.45;;;;;;;-3.29;100.00;95377.88;4993178;28;24456;-77
2023/02/26 05:40:26;;;;;;;2.63;1.40;;;;;;;-3.38;100.00;95392.34;4982773;28;25029;-78
2023/02/26 05:42:53;;;;;;;3.33;1.50;;;;;;;-3.12;100.00;95391.97;4990758;28;24441;-77
2023/02/26 05:45:19;;;;;;;2.90;1.40;;;;;;;-3.16;100.00;95396.22;4990899;28;24990;-77
2023/02/26 05:47:47;;;;;;;3.53;1.40;;;;;;;-3.32;100.00;95400.69;4985806;28;24824;-78
2023/02/26 05:50:14;;;;;;;4.93;1.58;;;;;;;-3.19;100.00;95397.13;4988045;28;24456;-77
2023/02/26 05:52:40;;;;;;;3.58;1.40;;;;;;;-3.42;100.00;95400.00;4992834;28;24429;-77
2023/02/26 05:55:09;;;;;;;4.20;1.63;;;;;;;-3.44;100.00;95408.50;4988968;28;24440;-77
2023/02/26 05:57:35;;;;;;;4.50;1.65;;;;;;;-3.38;100.00;95402.47;4992277;28;24445;-77
2023/02/26 06:00:02;;;;;;;3.75;1.30;;;;;;;-3.44;100.00;95409.31;4987328;28;24437;-77
2023/02/26 06:02:28;;;;;;;4.38;1.98;;;;;;;-3.51;100.00;95411.97;4989422;28;24445;-78
2023/02/26 06:04:56;;;;;;;3.90;1.58;;;;;;;-3.57;100.00;95407.81;4992762;28;24439;-77
2023/02/26 06:07:23;;;;;;;4.30;1.30;;;;;;;-3.73;100.00;95412.25;4986054;28;24831;-78
2023/02/26 06:09:49;;;;;;;2.80;1.50;;;;;;;-3.91;100.00;95417.53;4992101;28;24528;-77
2023/02/26 06:12:16;;;;;;;2.22;1.20;;;;;;;-3.83;100.00;95422.50;4990171;28;24768;-77
2023/02/26 06:14:42;;;;;;;3.43;1.77;;;;;;;-3.85;100.00;95419.16;4992517;28;24521;-77
2023/02/26 06:17:09;;;;;;;3.00;1.40;;;;;;;-3.57;100.00;95427.22;4991803;28;24441;-77
2023/02/26 06:19:36;;;;;;;5.38;1.92;;;;;;;-3.54;100.00;95430.56;4990117;28;24442;-77
2023/02/26 06:22:03;;;;;;;2.40;1.33;;;;;;;-3.55;100.00;95433.13;4986054;28;24464;-77
2023/02/26 06:24:30;;;;;;;4.25;1.50;;;;;;;-3.19;100.00;95440.19;4984576;28;24437;-77
2023/02/26 06:26:56;;;;;;;5.60;2.05;;;;;;;-3.24;100.00;95441.94;4992500;28;24481;-77
2023/02/26 06:29:23;;;;;;;3.25;1.50;;;;;;;-3.48;100.00;95454.97;4991906;28;24811;-77
2023/02/26 06:31:49;;;;;;;5.97;1.55;;;;;;;-3.45;100.00;95447.31;4991316;28;24436;-77
2023/02/26 06:34:16;;;;;;;4.32;2.00;;;;;;;-3.43;100.00;95443.06;4991690;28;24452;-77
2023/02/26 06:36:43;;;;;;;3.75;1.40;;;;;;;-3.27;100.00;95449.56;4990938;28;24437;-77
2023/02/26 06:39:11;;;;;;;6.00;1.73;;;;;;;-3.42;100.00;95460.75;4986549;28;24480;-76
2023/02/26 06:41:38;;;;;;;4.20;1.70;;;;;;;-3.25;100.00;95464.78;4989239;28;25073;-76
2023/02/26 06:44:04;;;;;;;5.90;1.65;;;;;;;-3.46;100.00;95471.78;4990294;28;24432;-78
2023/02/26 06:46:31;;;;;;;3.72;1.75;;;;;;;-3.45;100.00;95487.81;4989307;28;24855;-77
2023/02/26 06:48:57;;;;;;;3.60;1.70;;;;;;;-3.35;100.00;95484.31;4987278;28;24445;-77
2023/02/26 06:51:24;;;;;;;5.10;1.92;;;;;;;-3.21;100.00;95479.91;4984069;28;24444;-77
2023/02/26 06:53:50;;;;;;;3.40;1.80;;;;;;;-3.21;100.00;95481.59;4986339;28;25032;-77
2023/02/26 06:56:18;;;;;;;3.45;1.42;;;;;;;-3.27;100.00;95484.19;4989939;28;24468;-77
2023/02/26 06:58:44;;;;;;;3.03;1.58;;;;;;;-3.33;100.00;95495.25;4989755;28;24444;-77
2023/02/26 07:01:11;;;;;;;5.15;1.77;;;;;;;-3.15;100.00;95501.78;4987961;28;24444;-76
2023/02/26 07:03:37;;;;;;;3.78;2.15;;;;;;;-3.09;100.00;95495.78;4987188;28;24441;-77
2023/02/26 07:06:07;;;;;;;6.70;1.70;;;;;;;-3.10;100.00;95501.72;4977696;28;24816;-77
2023/02/26 07:08:34;;;;;;;3.72;1.83;;;;;;;-2.92;100.00;95507.34;4989721;28;24495;-76
2023/02/26 07:11:00;;;;;;;6.85;2.15;;;;;;;-2.92;100.00;95503.97;4987005;28;24437;-77
2023/02/26 07:13:28;;;;;;;3.42;1.77;;;;;;;-2.99;100.00;95515.06;4991107;28;24437;-77
2023/02/26 07:15:55;;;;;;;3.70;1.88;;;;;;;-3.11;100.00;95521.16;4989741;28;24432;-77
2023/02/26 07:18:21;;;;;;;3.53;1.67;;;;;;;-2.96;100.00;95522.63;4987268;28;24440;-77
2023/02/26 07:20:49;;;;;;;5.22;1.92;;;;;;;-3.12;100.00;95529.56;4989999;28;24460;-77
2023/02/26 07:23:16;;;;;;;4.50;2.00;;;;;;;-3.19;100.00;95527.97;4988883;28;24464;-76
2023/02/26 07:25:42;;;;;;;4.95;2.05;;;;;;;-2.86;100.00;95526.69;4988490;28;24436;-76
2023/02/26 07:28:09;;;;;;;8.88;1.90;;;;;;;-2.87;100.00;95527.56;4988419;28;24465;-77
2023/02/26 07:30:37;;;;;;;5.95;2.55;;;;;;;-2.77;100.00;95529.09;4988260;28;24464;-75
2023/02/26 07:33:03;;;;;;;7.93;2.20;;;;;;;-2.75;100.00;95522.28;4987587;28;24433;-76
2023/02/26 07:35:30;;;;;;;5.00;2.50;;;;;;;-2.54;100.00;95533.81;4990174;28;24997;-76
2023/02/26 07:37:56;;;;;;;4.23;2.10;;;;;;;-2.51;100.00;95538.84;4990385;28;24443;-77
2023/02/26 07:40:22;;;;;;;5.45;2.28;;;;;;;-2.54;100.00;95546.47;4989865;28;24441;-77
2023/02/26 07:42:49;;;;;;;4.75;2.28;;;;;;;-2.41;100.00;95544.63;4990465;28;24437;-78
2023/02/26 07:45:17;;;;;;;6.55;2.40;;;;;;;-2.51;100.00;95532.94;4981425;28;24440;-77
2023/02/26 07:47:45;;;;;;;5.38;2.47;;;;;;;-2.47;100.00;95542.16;4985348;28;25026;-76
2023/02/26 07:50:12;;;;;;;5.57;2.63;;;;;;;-2.43;100.00;95541.25;4980316;28;24813;-76
2023/02/26 07:52:38;;;;;;;3.97;2.17;;;;;;;-2.46;100.00;95549.72;4990522;28;24447;-76
2023/02/26 07:55:05;;;;;;;8.73;2.10;;;;;;;-2.67;100.00;95550.06;4989645;28;24429;-76
2023/02/26 07:57:32;;;;;;;5.25;2.10;;;;;;;-2.57;100.00;95545.69;4986849;28;24444;-77
2023/02/26 07:59:58;;;;;;;4.53;2.40;;;;;;;-2.41;100.00;95546.28;4983429;28;24440;-77
2023/02/26 08:02:25;;;;;;;5.80;2.05;;;;;;;-2.46;100.00;95553.97;4985629;28;24448;-77
2023/02/26 08:04:53;;;;;;;3.38;1.92;;;;;;;-2.56;100.00;95549.91;4985323;28;25018;-77
2023/02/26 08:07:20;;;;;;;5.88;2.40;;;;;;;-2.35;100.00;95544.50;4984151;28;25058;-77
2023/02/26 08:09:46;;;;;;;4.80;1.92;;;;;;;-2.48;100.00;95543.88;4994002;28;24504;-78
2023/02/26 08:12:12;;;;;;;3.10;1.60;;;;;;;-2.31;100.00;95538.50;4993723;28;24448;-76
2023/02/26 08:14:40;;;;;;;4.38;2.00;;;;;;;-2.13;100.00;95547.50;4990564;28;24449;-76
2023/02/26 08:17:07;;;;;;;4.43;1.90;;;;;;;-2.15;100.00;95545.84;4992991;28;24445;-78
2023/02/26 08:19:34;;;;;;;4.53;1.83;;;;;;;-2.00;100.00;95554.06;4993022;28;24997;-77
2023/02/26 08:22:01;;;;;;;5.27;2.03;;;;;;;-2.34;100.00;95555.47;4994099;28;24441;-77
2023/02/26 08:24:28;;;;;;;3.83;1.88;;;;;;;-2.17;100.00;95550.13;4994126;28;24448;-77
2023/02/26 08:26:55;;;;;;;4.88;1.92;;;;;;;-2.27;100.00;95559.59;4994212;28;24460;-77
2023/02/26 08:29:22;;;;;;;4.15;1.70;;;;;;;-2.20;100.00;95556.91;4994204;28;24468;-77
2023/02/26 08:31:49;;;;;;;4.50;1.98;;;;;;;-2.22;100.00;95558.66;4989845;28;24445;-77
2023/02/26 08:34:15;;;;;;;4.90;1.88;;;;;;;-2.43;100.00;95566.59;4992238;28;24441;-77
2023/02/26 08:36:42;;;;;;;3.95;1.70;;;;;;;-2.55;100.00;95556.66;4989506;28;24440;-74
2023/02/26 08:39:09;;;;;;;4.05;2.30;;;;;;;-2.17;100.00;95566.19;4992425;28;24452;-76
2023/02/26 08:41:36;;;;;;;5.15;1.95;;;;;;;-2.30;100.00;95564.69;4993220;28;24959;-77
2023/02/26 08:44:03;;;;;;;4.10;1.73;;;;;;;-2.03;100.00;95571.03;4993495;28;24433;-76
2023/02/26 08:46:30;;;;;;;3.92;1.48;;;;;;;-1.99;100.00;95562.50;4991479;28;24456;-77
2023/02/26 08:48:56;;;;;;;5.95;1.60;;;;;;;-2.02;100.00;95576.09;4989534;28;24441;-76
2023/02/26 08:51:23;;;;;;;4.18;1.60;;;;;;;-2.07;100.00;95571.97;4986583;28;24448;-77
2023/02/26 08:53:50;;;;;;;3.53;1.50;;;;;;;-1.92;100.00;95566.63;4993081;28;24799;-78
2023/02/26 08:56:18;;;;;;;4.70;1.77;;;;;;;-1.82;100.00;95572.34;4990093;28;24511;-76
2023/02/26 08:58:44;;;;;;;3.08;1.33;;;;;;;-1.93;100.00;95574.25;4989367;28;24436;-76
2023/02/26 09:01:11;;;;;;;3.85;1.60;;;;;;;-2.03;100.00;95573.59;4991777;28;24445;-77
2023/02/26 09:03:37;;;;;;;3.88;1.70;;;;;;;-2.13;100.00;95562.75;4993423;28;24792;-77
2023/02/26 09:06:04;;;;;;;6.72;1.60;;;;;;;-1.97;100.00;95574.28;4989460;28;24441;-76
2023/02/26 09:08:32;;;;;;;2.67;1.20;;;;;;;-2.08;100.00;95572.81;4987572;28;24468;-76
2023/02/26 09:11:00;;;;;;;3.72;1.40;;;;;;;-2.18;100.00;95584.00;4984745;28;24516;-76
2023/02/26 09:13:29;;;;;;;4.05;1.40;;;;;;;-2.07;100.00;95588.03;4986692;28;24539;-76
2023/02/26 09:15:55;;;;;;;2.00;1.00;;;;;;;-2.29;100.00;95587.53;4989686;28;24448;-76
2023/02/26 09:18:22;;;;;;;3.20;1.27;;;;;;;-2.34;100.00;95588.44;4987622;28;24445;-76
2023/02/26 09:20:49;;;;;;;3.78;1.40;;;;;;;-2.35;100.00;95595.22;4985864;28;24444;-75
2023/02/26 09:23:15;;;;;;;3.13;1.30;;;;;;;-2.33;100.00;95601.13;4987438;28;24448;-76
2023/02/26 09:25:42;;;;;;;5.13;1.52;;;;;;;-2.06;100.00;95604.06;4988534;28;24448;-75
2023/02/26 09:28:08;;;;;;;4.68;1.50;;;;;;;-1.92;100.00;95594.53;4989954;28;24539;-76
2023/02/26 09:30:36;;;;;;;3.03;1.27;;;;;;;-2.09;100.00;95599.03;4986414;28;24444;-75
2023/02/26 09:33:02;;;;;;;3.63;1.80;;;;;;;-2.03;100.00;95604.88;4988441;28;24440;-75
2023/02/26 09:35:29;;;;;;;4.38;1.55;;;;;;;-1.98;100.00;95604.78;4987273;28;24460;-76
2023/02/26 09:37:55;;;;;;;4.65;1.30;;;;;;;-2.02;100.00;95610.78;4987580;28;24449;-75
2023/02/26 09:40:32;;;;;;;3.47;1.27;;;;;;;-2.20;100.00;95612.72;4986856;28;24437;-76
2023/02/26 09:43:27;;;;;;;4.65;1.80;;;;;;;-2.20;100.00;95622.88;4982639;28;24455;-77
2023/02/26 09:45:59;;;;;;;5.20;1.38;;;;;;;-2.51;100.00;95632.66;4954751;28;24800;-76
2023/02/26 09:48:29;;;;;;;5.05;1.60;;;;;;;-2.26;100.00;95617.09;4988464;28;24464;-76
2023/02/26 09:50:58;;;;;;;5.93;1.88;;;;;;;-2.15;100.00;95627.91;4988978;28;24436;-77
2023/02/26 09:53:27;;;;;;;4.18;1.45;;;;;;;-2.39;100.00;95620.66;4987084;28;24445;-78
2023/02/26 09:55:58;;;;;;;3.72;1.48;;;;;;;-2.30;100.00;95625.56;4988732;28;24796;-77
2023/02/26 09:58:29;;;;;;;3.30;1.23;;;;;;;-2.31;100.00;95629.81;4985971;28;24989;-77
2023/02/26 10:01:05;;;;;;;3.10;1.30;;;;;;;-2.30;100.00;95634.06;4986519;28;24468;-77
2023/02/26 10:03:40;;;;;;;2.80;1.50;;;;;;;-2.21;100.00;95635.59;4985190;28;24535;-77
2023/02/26 10:06:21;;;;;;;2.80;1.30;;;;;;;-2.32;100.00;95625.63;4987383;28;24985;-76
2023/02/26 10:09:12;;;;;;;2.80;1.48;;;;;;;-2.04;100.00;95635.31;4982527;28;24548;-77
2023/02/26 10:11:47;;;;;;;2.60;1.45;;;;;;;-2.27;100.00;95631.44;4987805;28;24436;-75
2023/02/26 10:14:19;;;;;;;2.92;1.30;;;;;;;-2.24;100.00;95641.56;4986197;28;24437;-75
2023/02/26 10:16:52;;;;;;;6.03;1.83;;;;;;;-2.05;100.00;95633.66;4988653;28;24799;-77
2023/02/26 10:19:23;;;;;;;3.78;1.70;;;;;;;-2.03;100.00;95639.56;4989192;28;24448;-78
2023/02/26 10:21:53;;;;;;;2.88;1.23;;;;;;;-2.24;100.00;95643.25;4985718;28;24986;-77
2023/02/26 10:24:22;;;;;;;1.77;1.20;;;;;;;-2.17;100.00;95644.84;4987811;28;24509;-76
2023/02/26 10:26:53;;;;;;;4.95;1.50;;;;;;;-2.10;100.00;95641.34;4992008;28;25058;-76
2023/02/26 10:29:24;;;;;;;2.38;1.38;;;;;;;-2.32;100.00;95642.53;4985928;28;24831;-76
2023/02/26 10:32:14;;;;;;;3.90;1.50;;;;;;;-2.16;100.00;95641.44;4992143;28;24789;-76
2023/02/26 10:34:51;;;;;;;4.18;1.70;;;;;;;-2.16;100.00;95654.13;4991826;28;24456;-77
2023/02/26 10:37:19;;;;;;;3.70;1.40;;;;;;;-2.28;100.00;95661.91;4989575;28;24432;-77
2023/02/26 10:39:51;;;;;;;5.45;1.63;;;;;;;-2.10;100.00;95648.13;4991779;28;24447;-77
2023/02/26 10:42:23;;;;;;;3.60;1.20;;;;;;;-2.14;100.00;95651.59;4989175;28;24455;-77
2023/02/26 10:45:00;;;;;;;4.43;1.42;;;;;;;-2.04;100.00;95656.50;4988742;28;24428;-77
2023/02/26 10:47:38;;;;;;;3.65;1.40;;;;;;;-2.05;100.00;95664.09;4986408;28;24468;-76
2023/02/26 10:50:06;;;;;;;2.97;1.57;;;;;;;-2.12;100.00;95678.59;4987443;28;24542;-77
2023/02/26 10:52:35;;;;;;;3.77;1.70;;;;;;;-2.37;100.00;95664.56;4985624;28;24444;-76
2023/02/26 10:55:26;;;;;;;3.72;1.70;;;;;;;-2.17;100.00;95672.75;4984108;28;24448;-76
2023/02/26 10:57:58;;;;;;;3.35;1.55;;;;;;;-2.37;100.00;95669.66;4990928;28;24521;-77
2023/02/26 11:00:24;;;;;;;3.28;1.80;;;;;;;-2.21;100.00;95668.59;4986267;28;24444;-76
2023/02/26 11:02:54;;;;;;;3.25;1.63;;;;;;;-2.19;100.00;95671.91;4990692;28;24448;-77
2023/02/26 11:05:23;;;;;;;2.05;1.33;;;;;;;-2.17;100.00;95674.44;4978121;28;24437;-76
2023/02/26 11:07:54;;;;;;;3.57;1.30;;;;;;;-2.07;100.00;95676.00;4988238;28;24502;-77
2023/02/26 11:10:25;;;;;;;2.65;1.40;;;;;;;-2.10;100.00;95670.97;4986088;28;24444;-77
2023/02/26 11:12:52;;;;;;;3.15;1.20;;;;;;;-1.86;100.00;95673.09;4984404;28;24452;-77
2023/02/26 11:15:21;;;;;;;2.72;1.38;;;;;;;-1.93;100.00;95671.53;4983131;28;24429;-77
2023/02/26 11:17:53;;;;;;;2.53;1.23;;;;;;;-1.62;100.00;95663.44;4990077;28;24541;-77
2023/02/26 11:20:30;;;;;;;3.30;1.67;;;;;;;-1.52;100.00;95667.47;4985204;28;24445;-77
2023/02/26 11:22:59;;;;;;;3.08;1.30;;;;;;;-1.62;100.00;95676.97;4985267;28;24787;-77
2023/02/26 11:25:29;;;;;;;4.78;1.35;;;;;;;-1.62;100.00;95669.34;4982832;28;24476;-77
2023/02/26 11:28:01;;;;;;;2.80;1.33;;;;;;;-1.50;100.00;95668.28;4986536;28;25037;-77
2023/02/26 11:30:31;;;;;;;2.88;1.30;;;;;;;-1.61;100.00;95655.78;4981584;28;24432;-77
2023/02/26 11:33:03;;;;;;;3.08;1.15;;;;;;;-1.57;100.00;95659.09;4985030;28;24464;-76
2023/02/26 11:35:31;;;;;;;2.08;1.00;;;;;;;-1.47;100.00;95655.53;4988521;28;24433;-77